sensor_id;sensor_type;location;lat;lon;timestamp;P1;durP1;ratioP1;P2;durP2;ratioP2
73113;SDS011;61301;51.956;5.876;2023-11-19T00:00:47;10.88;;;8.70;;
73113;SDS011;61301;51.956;5.876;2023-11-19T00:03:13;10.63;;;9.70;;
73113;SDS011;61301;51.956;5.876;2023-11-19T00:05:39;10.20;;;9.02;;
73113;SDS011;61301;51.956;5.876;2023-11-19T00:08:06;10.73;;;8.10;;
73113;SDS011;61301;51.956;5.876;2023-11-19T00:10:32;9.35;;;8.38;;
73113;SDS011;61301;51.956;5.876;2023-11-19T00:12:58;9.48;;;8.43;;
73113;SDS011;61301;51.956;5.876;2023-11-19T00:15:24;10.25;;;8.18;;
73113;SDS011;61301;51.956;5.876;2023-11-19T00:17:50;13.02;;;9.07;;
73113;SDS011;61301;51.956;5.876;2023-11-19T00:20:17;8.90;;;7.80;;
73113;SDS011;61301;51.956;5.876;2023-11-19T00:22:44;12.15;;;8.35;;
73113;SDS011;61301;51.956;5.876;2023-11-19T00:25:13;9.93;;;8.40;;
73113;SDS011;61301;51.956;5.876;2023-11-19T00:27:40;9.90;;;6.88;;
73113;SDS011;61301;51.956;5.876;2023-11-19T00:30:06;13.15;;;7.10;;
73113;SDS011;61301;51.956;5.876;2023-11-19T00:32:32;9.65;;;6.07;;
73113;SDS011;61301;51.956;5.876;2023-11-19T00:34:59;12.27;;;7.13;;
73113;SDS011;61301;51.956;5.876;2023-11-19T00:37:26;8.05;;;6.88;;
73113;SDS011;61301;51.956;5.876;2023-11-19T00:39:52;8.30;;;5.95;;
73113;SDS011;61301;51.956;5.876;2023-11-19T00:42:18;10.27;;;5.53;;
73113;SDS011;61301;51.956;5.876;2023-11-19T00:44:44;10.93;;;6.22;;
73113;SDS011;61301;51.956;5.876;2023-11-19T00:47:11;12.05;;;6.43;;
73113;SDS011;61301;51.956;5.876;2023-11-19T00:49:38;13.57;;;5.05;;
73113;SDS011;61301;51.956;5.876;2023-11-19T00:52:04;10.23;;;4.65;;
73113;SDS011;61301;51.956;5.876;2023-11-19T00:54:30;11.32;;;5.43;;
73113;SDS011;61301;51.956;5.876;2023-11-19T00:56:56;9.77;;;5.78;;
73113;SDS011;61301;51.956;5.876;2023-11-19T00:59:22;12.02;;;4.60;;
73113;SDS011;61301;51.956;5.876;2023-11-19T01:01:48;9.07;;;4.47;;
73113;SDS011;61301;51.956;5.876;2023-11-19T01:04:14;7.72;;;4.32;;
73113;SDS011;61301;51.956;5.876;2023-11-19T01:06:43;10.90;;;4.15;;
73113;SDS011;61301;51.956;5.876;2023-11-19T01:09:09;10.38;;;4.20;;
73113;SDS011;61301;51.956;5.876;2023-11-19T01:11:35;17.10;;;5.15;;
73113;SDS011;61301;51.956;5.876;2023-11-19T01:14:02;13.77;;;4.47;;
73113;SDS011;61301;51.956;5.876;2023-11-19T01:16:28;12.82;;;4.32;;
73113;SDS011;61301;51.956;5.876;2023-11-19T01:18:54;12.23;;;4.38;;
73113;SDS011;61301;51.956;5.876;2023-11-19T01:21:20;12.48;;;4.28;;
73113;SDS011;61301;51.956;5.876;2023-11-19T01:23:47;15.15;;;3.92;;
73113;SDS011;61301;51.956;5.876;2023-11-19T01:26:13;17.48;;;4.13;;
73113;SDS011;61301;51.956;5.876;2023-11-19T01:28:40;15.52;;;4.20;;
73113;SDS011;61301;51.956;5.876;2023-11-19T01:31:10;14.10;;;3.90;;
73113;SDS011;61301;51.956;5.876;2023-11-19T01:33:37;14.23;;;3.88;;
73113;SDS011;61301;51.956;5.876;2023-11-19T01:36:03;13.23;;;3.65;;
73113;SDS011;61301;51.956;5.876;2023-11-19T01:38:29;18.20;;;4.50;;
73113;SDS011;61301;51.956;5.876;2023-11-19T01:40:56;19.75;;;4.97;;
73113;SDS011;61301;51.956;5.876;2023-11-19T01:43:38;15.57;;;3.38;;
73113;SDS011;61301;51.956;5.876;2023-11-19T01:46:08;16.95;;;3.90;;
73113;SDS011;61301;51.956;5.876;2023-11-19T01:48:38;13.15;;;3.72;;
73113;SDS011;61301;51.956;5.876;2023-11-19T01:51:08;13.93;;;3.30;;
73113;SDS011;61301;51.956;5.876;2023-11-19T01:53:34;15.30;;;3.55;;
73113;SDS011;61301;51.956;5.876;2023-11-19T01:56:03;16.35;;;4.32;;
73113;SDS011;61301;51.956;5.876;2023-11-19T01:58:32;18.02;;;4.53;;
73113;SDS011;61301;51.956;5.876;2023-11-19T02:00:58;15.45;;;4.47;;
73113;SDS011;61301;51.956;5.876;2023-11-19T02:03:24;15.43;;;3.78;;
73113;SDS011;61301;51.956;5.876;2023-11-19T02:05:52;14.80;;;3.78;;
73113;SDS011;61301;51.956;5.876;2023-11-19T02:08:18;20.55;;;4.85;;
73113;SDS011;61301;51.956;5.876;2023-11-19T02:10:45;20.83;;;4.20;;
73113;SDS011;61301;51.956;5.876;2023-11-19T02:13:11;18.25;;;3.90;;
73113;SDS011;61301;51.956;5.876;2023-11-19T02:15:40;13.65;;;3.90;;
73113;SDS011;61301;51.956;5.876;2023-11-19T02:18:23;20.92;;;4.35;;
73113;SDS011;61301;51.956;5.876;2023-11-19T02:20:56;16.35;;;4.68;;
73113;SDS011;61301;51.956;5.876;2023-11-19T02:23:25;18.52;;;4.07;;
73113;SDS011;61301;51.956;5.876;2023-11-19T02:26:14;20.20;;;4.40;;
73113;SDS011;61301;51.956;5.876;2023-11-19T02:29:07;17.30;;;4.03;;
73113;SDS011;61301;51.956;5.876;2023-11-19T02:31:33;22.38;;;4.28;;
73113;SDS011;61301;51.956;5.876;2023-11-19T02:34:00;22.42;;;4.30;;
73113;SDS011;61301;51.956;5.876;2023-11-19T02:36:28;14.93;;;4.43;;
73113;SDS011;61301;51.956;5.876;2023-11-19T02:38:54;25.85;;;5.63;;
73113;SDS011;61301;51.956;5.876;2023-11-19T02:41:20;20.08;;;4.53;;
73113;SDS011;61301;51.956;5.876;2023-11-19T02:43:46;19.45;;;4.30;;
73113;SDS011;61301;51.956;5.876;2023-11-19T02:46:14;22.40;;;5.25;;
73113;SDS011;61301;51.956;5.876;2023-11-19T02:48:40;20.65;;;3.67;;
73113;SDS011;61301;51.956;5.876;2023-11-19T02:51:07;17.25;;;4.38;;
73113;SDS011;61301;51.956;5.876;2023-11-19T02:53:36;23.17;;;6.50;;
73113;SDS011;61301;51.956;5.876;2023-11-19T02:56:06;23.50;;;4.65;;
73113;SDS011;61301;51.956;5.876;2023-11-19T02:58:42;24.88;;;4.90;;
73113;SDS011;61301;51.956;5.876;2023-11-19T03:01:10;22.95;;;5.05;;
73113;SDS011;61301;51.956;5.876;2023-11-19T03:03:48;23.45;;;5.57;;
73113;SDS011;61301;51.956;5.876;2023-11-19T03:06:20;22.20;;;5.43;;
73113;SDS011;61301;51.956;5.876;2023-11-19T03:08:47;24.73;;;4.57;;
73113;SDS011;61301;51.956;5.876;2023-11-19T03:11:14;29.02;;;6.03;;
73113;SDS011;61301;51.956;5.876;2023-11-19T03:13:40;21.17;;;4.90;;
73113;SDS011;61301;51.956;5.876;2023-11-19T03:16:06;29.10;;;5.38;;
73113;SDS011;61301;51.956;5.876;2023-11-19T03:18:33;34.92;;;6.18;;
73113;SDS011;61301;51.956;5.876;2023-11-19T03:20:59;28.73;;;5.80;;
73113;SDS011;61301;51.956;5.876;2023-11-19T03:23:25;28.98;;;5.70;;
73113;SDS011;61301;51.956;5.876;2023-11-19T03:25:53;28.55;;;6.03;;
73113;SDS011;61301;51.956;5.876;2023-11-19T03:28:21;30.85;;;6.07;;
73113;SDS011;61301;51.956;5.876;2023-11-19T03:30:47;35.63;;;7.07;;
73113;SDS011;61301;51.956;5.876;2023-11-19T03:33:13;33.00;;;5.60;;
73113;SDS011;61301;51.956;5.876;2023-11-19T03:35:39;23.08;;;5.88;;
73113;SDS011;61301;51.956;5.876;2023-11-19T03:38:06;35.28;;;5.53;;
73113;SDS011;61301;51.956;5.876;2023-11-19T03:40:33;27.30;;;6.93;;
73113;SDS011;61301;51.956;5.876;2023-11-19T03:42:58;38.33;;;7.13;;
73113;SDS011;61301;51.956;5.876;2023-11-19T03:45:24;32.83;;;5.40;;
73113;SDS011;61301;51.956;5.876;2023-11-19T03:47:51;26.25;;;6.20;;
73113;SDS011;61301;51.956;5.876;2023-11-19T03:50:17;25.83;;;5.68;;
73113;SDS011;61301;51.956;5.876;2023-11-19T03:52:46;33.60;;;6.57;;
73113;SDS011;61301;51.956;5.876;2023-11-19T03:55:12;33.05;;;7.22;;
73113;SDS011;61301;51.956;5.876;2023-11-19T03:57:38;32.40;;;7.10;;
73113;SDS011;61301;51.956;5.876;2023-11-19T04:00:05;26.27;;;5.40;;
73113;SDS011;61301;51.956;5.876;2023-11-19T04:02:40;30.38;;;6.65;;
73113;SDS011;61301;51.956;5.876;2023-11-19T04:05:06;31.90;;;6.57;;
73113;SDS011;61301;51.956;5.876;2023-11-19T04:07:33;28.02;;;6.10;;
73113;SDS011;61301;51.956;5.876;2023-11-19T04:09:59;27.98;;;6.15;;
73113;SDS011;61301;51.956;5.876;2023-11-19T04:12:25;42.22;;;7.07;;
73113;SDS011;61301;51.956;5.876;2023-11-19T04:14:51;31.50;;;6.45;;
73113;SDS011;61301;51.956;5.876;2023-11-19T04:17:18;36.38;;;7.75;;
73113;SDS011;61301;51.956;5.876;2023-11-19T04:19:44;30.25;;;5.68;;
73113;SDS011;61301;51.956;5.876;2023-11-19T04:22:10;32.63;;;6.95;;
73113;SDS011;61301;51.956;5.876;2023-11-19T04:24:36;39.95;;;8.32;;
73113;SDS011;61301;51.956;5.876;2023-11-19T04:27:05;29.30;;;6.63;;
73113;SDS011;61301;51.956;5.876;2023-11-19T04:29:32;31.73;;;6.90;;
73113;SDS011;61301;51.956;5.876;2023-11-19T04:31:58;37.92;;;8.50;;
73113;SDS011;61301;51.956;5.876;2023-11-19T04:34:24;34.22;;;6.63;;
73113;SDS011;61301;51.956;5.876;2023-11-19T04:36:51;27.30;;;6.18;;
73113;SDS011;61301;51.956;5.876;2023-11-19T04:39:17;36.70;;;6.32;;
73113;SDS011;61301;51.956;5.876;2023-11-19T04:41:50;29.80;;;6.18;;
73113;SDS011;61301;51.956;5.876;2023-11-19T04:44:20;32.70;;;6.15;;
73113;SDS011;61301;51.956;5.876;2023-11-19T04:46:46;30.80;;;6.28;;
73113;SDS011;61301;51.956;5.876;2023-11-19T04:49:12;34.80;;;6.93;;
73113;SDS011;61301;51.956;5.876;2023-11-19T04:51:40;40.08;;;7.90;;
73113;SDS011;61301;51.956;5.876;2023-11-19T04:54:10;33.30;;;6.72;;
73113;SDS011;61301;51.956;5.876;2023-11-19T04:56:36;36.00;;;7.40;;
73113;SDS011;61301;51.956;5.876;2023-11-19T04:59:05;33.22;;;6.50;;
73113;SDS011;61301;51.956;5.876;2023-11-19T05:01:32;30.52;;;6.70;;
73113;SDS011;61301;51.956;5.876;2023-11-19T05:03:59;45.35;;;7.20;;
73113;SDS011;61301;51.956;5.876;2023-11-19T05:06:28;38.05;;;8.18;;
73113;SDS011;61301;51.956;5.876;2023-11-19T05:08:55;25.35;;;5.25;;
73113;SDS011;61301;51.956;5.876;2023-11-19T05:11:22;39.22;;;7.20;;
73113;SDS011;61301;51.956;5.876;2023-11-19T05:13:48;32.17;;;6.72;;
73113;SDS011;61301;51.956;5.876;2023-11-19T05:16:14;35.00;;;7.20;;
73113;SDS011;61301;51.956;5.876;2023-11-19T05:18:43;33.45;;;6.07;;
73113;SDS011;61301;51.956;5.876;2023-11-19T05:21:10;25.45;;;6.72;;
73113;SDS011;61301;51.956;5.876;2023-11-19T05:23:36;46.70;;;7.32;;
73113;SDS011;61301;51.956;5.876;2023-11-19T05:26:02;39.85;;;7.03;;
73113;SDS011;61301;51.956;5.876;2023-11-19T05:28:28;30.88;;;7.22;;
73113;SDS011;61301;51.956;5.876;2023-11-19T05:30:54;34.10;;;5.88;;
73113;SDS011;61301;51.956;5.876;2023-11-19T05:33:21;25.77;;;5.55;;
73113;SDS011;61301;51.956;5.876;2023-11-19T05:35:50;31.98;;;6.38;;
73113;SDS011;61301;51.956;5.876;2023-11-19T05:38:16;23.42;;;5.25;;
73113;SDS011;61301;51.956;5.876;2023-11-19T05:40:42;32.05;;;6.40;;
73113;SDS011;61301;51.956;5.876;2023-11-19T05:43:09;36.22;;;7.75;;
73113;SDS011;61301;51.956;5.876;2023-11-19T05:45:35;42.97;;;6.55;;
73113;SDS011;61301;51.956;5.876;2023-11-19T05:48:01;36.33;;;7.13;;
73113;SDS011;61301;51.956;5.876;2023-11-19T05:50:29;34.40;;;5.68;;
73113;SDS011;61301;51.956;5.876;2023-11-19T05:52:55;34.63;;;6.65;;
73113;SDS011;61301;51.956;5.876;2023-11-19T05:55:21;39.72;;;6.82;;
73113;SDS011;61301;51.956;5.876;2023-11-19T05:57:48;31.33;;;6.05;;
73113;SDS011;61301;51.956;5.876;2023-11-19T06:00:17;47.03;;;9.48;;
73113;SDS011;61301;51.956;5.876;2023-11-19T06:02:43;36.95;;;7.53;;
73113;SDS011;61301;51.956;5.876;2023-11-19T06:05:09;33.67;;;6.72;;
73113;SDS011;61301;51.956;5.876;2023-11-19T06:07:35;32.70;;;6.68;;
73113;SDS011;61301;51.956;5.876;2023-11-19T06:10:02;37.13;;;6.80;;
73113;SDS011;61301;51.956;5.876;2023-11-19T06:12:33;36.38;;;7.25;;
73113;SDS011;61301;51.956;5.876;2023-11-19T06:15:04;31.83;;;6.32;;
73113;SDS011;61301;51.956;5.876;2023-11-19T06:17:31;40.92;;;7.82;;
73113;SDS011;61301;51.956;5.876;2023-11-19T06:19:57;37.28;;;7.22;;
73113;SDS011;61301;51.956;5.876;2023-11-19T06:22:23;45.63;;;8.68;;
73113;SDS011;61301;51.956;5.876;2023-11-19T06:24:49;39.67;;;7.00;;
73113;SDS011;61301;51.956;5.876;2023-11-19T06:27:15;36.75;;;7.18;;
73113;SDS011;61301;51.956;5.876;2023-11-19T06:29:44;37.08;;;6.82;;
73113;SDS011;61301;51.956;5.876;2023-11-19T06:32:10;35.35;;;6.22;;
73113;SDS011;61301;51.956;5.876;2023-11-19T06:34:36;33.03;;;6.80;;
73113;SDS011;61301;51.956;5.876;2023-11-19T06:37:02;37.30;;;7.97;;
73113;SDS011;61301;51.956;5.876;2023-11-19T06:39:29;33.63;;;6.05;;
73113;SDS011;61301;51.956;5.876;2023-11-19T06:41:55;41.78;;;7.78;;
73113;SDS011;61301;51.956;5.876;2023-11-19T06:44:22;36.92;;;6.30;;
73113;SDS011;61301;51.956;5.876;2023-11-19T06:46:48;33.70;;;6.60;;
73113;SDS011;61301;51.956;5.876;2023-11-19T06:49:14;36.20;;;7.22;;
73113;SDS011;61301;51.956;5.876;2023-11-19T06:51:41;41.33;;;7.80;;
73113;SDS011;61301;51.956;5.876;2023-11-19T06:54:07;32.97;;;6.93;;
73113;SDS011;61301;51.956;5.876;2023-11-19T06:56:33;36.45;;;6.85;;
73113;SDS011;61301;51.956;5.876;2023-11-19T06:58:59;29.15;;;6.05;;
73113;SDS011;61301;51.956;5.876;2023-11-19T07:01:25;38.60;;;7.18;;
73113;SDS011;61301;51.956;5.876;2023-11-19T07:03:51;42.25;;;7.47;;
73113;SDS011;61301;51.956;5.876;2023-11-19T07:06:17;44.05;;;8.80;;
73113;SDS011;61301;51.956;5.876;2023-11-19T07:08:43;34.42;;;6.82;;
73113;SDS011;61301;51.956;5.876;2023-11-19T07:11:13;36.97;;;7.63;;
73113;SDS011;61301;51.956;5.876;2023-11-19T07:13:42;31.80;;;6.80;;
73113;SDS011;61301;51.956;5.876;2023-11-19T07:16:08;36.60;;;6.57;;
73113;SDS011;61301;51.956;5.876;2023-11-19T07:18:37;39.15;;;7.40;;
73113;SDS011;61301;51.956;5.876;2023-11-19T07:21:04;27.63;;;6.40;;
73113;SDS011;61301;51.956;5.876;2023-11-19T07:23:30;42.38;;;7.85;;
73113;SDS011;61301;51.956;5.876;2023-11-19T07:25:56;33.70;;;7.13;;
73113;SDS011;61301;51.956;5.876;2023-11-19T07:28:22;30.77;;;7.13;;
73113;SDS011;61301;51.956;5.876;2023-11-19T07:30:48;41.08;;;7.28;;
73113;SDS011;61301;51.956;5.876;2023-11-19T07:33:15;40.35;;;7.85;;
73113;SDS011;61301;51.956;5.876;2023-11-19T07:35:42;38.70;;;7.20;;
73113;SDS011;61301;51.956;5.876;2023-11-19T07:38:09;26.70;;;6.10;;
73113;SDS011;61301;51.956;5.876;2023-11-19T07:40:35;33.83;;;6.55;;
73113;SDS011;61301;51.956;5.876;2023-11-19T07:43:01;34.95;;;7.82;;
73113;SDS011;61301;51.956;5.876;2023-11-19T07:45:27;35.63;;;6.40;;
73113;SDS011;61301;51.956;5.876;2023-11-19T07:47:53;39.40;;;6.13;;
73113;SDS011;61301;51.956;5.876;2023-11-19T07:50:20;34.60;;;6.35;;
73113;SDS011;61301;51.956;5.876;2023-11-19T07:52:46;40.47;;;7.53;;
73113;SDS011;61301;51.956;5.876;2023-11-19T07:55:12;39.80;;;6.47;;
73113;SDS011;61301;51.956;5.876;2023-11-19T07:57:38;27.33;;;5.68;;
73113;SDS011;61301;51.956;5.876;2023-11-19T08:00:04;34.97;;;6.30;;
73113;SDS011;61301;51.956;5.876;2023-11-19T08:02:38;29.67;;;7.07;;
73113;SDS011;61301;51.956;5.876;2023-11-19T08:05:04;37.38;;;8.15;;
73113;SDS011;61301;51.956;5.876;2023-11-19T08:07:31;41.63;;;8.23;;
73113;SDS011;61301;51.956;5.876;2023-11-19T08:09:57;35.03;;;7.35;;
73113;SDS011;61301;51.956;5.876;2023-11-19T08:12:23;28.02;;;6.05;;
73113;SDS011;61301;51.956;5.876;2023-11-19T08:14:49;30.20;;;6.50;;
73113;SDS011;61301;51.956;5.876;2023-11-19T08:17:15;34.85;;;6.63;;
73113;SDS011;61301;51.956;5.876;2023-11-19T08:19:41;33.85;;;6.38;;
73113;SDS011;61301;51.956;5.876;2023-11-19T08:22:07;28.25;;;6.35;;
73113;SDS011;61301;51.956;5.876;2023-11-19T08:24:35;25.92;;;5.82;;
73113;SDS011;61301;51.956;5.876;2023-11-19T08:27:01;33.83;;;7.28;;
73113;SDS011;61301;51.956;5.876;2023-11-19T08:29:27;32.17;;;7.15;;
73113;SDS011;61301;51.956;5.876;2023-11-19T08:31:53;33.70;;;7.05;;
73113;SDS011;61301;51.956;5.876;2023-11-19T08:34:19;34.30;;;6.80;;
73113;SDS011;61301;51.956;5.876;2023-11-19T08:36:45;28.88;;;6.40;;
73113;SDS011;61301;51.956;5.876;2023-11-19T08:39:11;31.20;;;6.28;;
73113;SDS011;61301;51.956;5.876;2023-11-19T08:41:39;34.33;;;6.60;;
73113;SDS011;61301;51.956;5.876;2023-11-19T08:44:07;36.40;;;7.63;;
73113;SDS011;61301;51.956;5.876;2023-11-19T08:46:33;38.50;;;6.80;;
73113;SDS011;61301;51.956;5.876;2023-11-19T08:48:59;29.02;;;6.80;;
73113;SDS011;61301;51.956;5.876;2023-11-19T08:51:25;38.78;;;7.00;;
73113;SDS011;61301;51.956;5.876;2023-11-19T08:53:52;41.67;;;8.02;;
73113;SDS011;61301;51.956;5.876;2023-11-19T08:56:18;34.63;;;6.10;;
73113;SDS011;61301;51.956;5.876;2023-11-19T08:58:43;31.30;;;6.65;;
73113;SDS011;61301;51.956;5.876;2023-11-19T09:01:09;32.53;;;6.45;;
73113;SDS011;61301;51.956;5.876;2023-11-19T09:03:35;29.50;;;6.80;;
73113;SDS011;61301;51.956;5.876;2023-11-19T09:06:02;30.88;;;6.05;;
73113;SDS011;61301;51.956;5.876;2023-11-19T09:08:28;37.15;;;8.20;;
73113;SDS011;61301;51.956;5.876;2023-11-19T09:10:54;36.75;;;7.72;;
73113;SDS011;61301;51.956;5.876;2023-11-19T09:13:20;37.08;;;7.22;;
73113;SDS011;61301;51.956;5.876;2023-11-19T09:15:47;31.73;;;6.80;;
73113;SDS011;61301;51.956;5.876;2023-11-19T09:18:13;30.30;;;6.25;;
73113;SDS011;61301;51.956;5.876;2023-11-19T09:20:39;34.30;;;6.65;;
73113;SDS011;61301;51.956;5.876;2023-11-19T09:23:05;35.20;;;6.57;;
73113;SDS011;61301;51.956;5.876;2023-11-19T09:25:32;28.48;;;6.47;;
73113;SDS011;61301;51.956;5.876;2023-11-19T09:27:58;37.03;;;7.63;;
73113;SDS011;61301;51.956;5.876;2023-11-19T09:30:24;31.75;;;5.88;;
73113;SDS011;61301;51.956;5.876;2023-11-19T09:32:49;37.63;;;7.45;;
73113;SDS011;61301;51.956;5.876;2023-11-19T09:35:15;32.47;;;6.00;;
73113;SDS011;61301;51.956;5.876;2023-11-19T09:37:42;24.42;;;6.30;;
73113;SDS011;61301;51.956;5.876;2023-11-19T09:40:09;32.83;;;6.43;;
73113;SDS011;61301;51.956;5.876;2023-11-19T09:42:42;33.25;;;6.68;;
73113;SDS011;61301;51.956;5.876;2023-11-19T09:45:13;35.42;;;6.72;;
73113;SDS011;61301;51.956;5.876;2023-11-19T09:47:43;36.85;;;6.93;;
73113;SDS011;61301;51.956;5.876;2023-11-19T09:50:17;29.50;;;5.88;;
73113;SDS011;61301;51.956;5.876;2023-11-19T09:52:44;30.58;;;6.72;;
73113;SDS011;61301;51.956;5.876;2023-11-19T09:55:11;34.85;;;6.78;;
73113;SDS011;61301;51.956;5.876;2023-11-19T09:57:38;34.58;;;6.07;;
73113;SDS011;61301;51.956;5.876;2023-11-19T10:00:06;24.90;;;6.10;;
73113;SDS011;61301;51.956;5.876;2023-11-19T10:02:33;32.53;;;6.22;;
73113;SDS011;61301;51.956;5.876;2023-11-19T10:05:06;29.08;;;5.72;;
73113;SDS011;61301;51.956;5.876;2023-11-19T10:07:33;30.95;;;5.68;;
73113;SDS011;61301;51.956;5.876;2023-11-19T10:10:00;32.83;;;7.38;;
73113;SDS011;61301;51.956;5.876;2023-11-19T10:12:27;23.73;;;6.07;;
73113;SDS011;61301;51.956;5.876;2023-11-19T10:14:57;26.17;;;5.75;;
73113;SDS011;61301;51.956;5.876;2023-11-19T10:17:33;30.20;;;7.25;;
73113;SDS011;61301;51.956;5.876;2023-11-19T10:20:00;26.15;;;6.00;;
73113;SDS011;61301;51.956;5.876;2023-11-19T10:22:27;31.05;;;5.93;;
73113;SDS011;61301;51.956;5.876;2023-11-19T10:24:53;32.67;;;5.72;;
73113;SDS011;61301;51.956;5.876;2023-11-19T10:27:19;34.72;;;6.57;;
73113;SDS011;61301;51.956;5.876;2023-11-19T10:29:46;39.90;;;6.32;;
73113;SDS011;61301;51.956;5.876;2023-11-19T10:32:13;30.27;;;6.80;;
73113;SDS011;61301;51.956;5.876;2023-11-19T10:34:40;31.83;;;5.78;;
73113;SDS011;61301;51.956;5.876;2023-11-19T10:37:07;29.85;;;7.03;;
73113;SDS011;61301;51.956;5.876;2023-11-19T10:39:52;32.50;;;6.38;;
73113;SDS011;61301;51.956;5.876;2023-11-19T10:42:21;29.30;;;6.43;;
73113;SDS011;61301;51.956;5.876;2023-11-19T10:44:47;28.20;;;5.90;;
73113;SDS011;61301;51.956;5.876;2023-11-19T10:47:14;32.22;;;6.47;;
73113;SDS011;61301;51.956;5.876;2023-11-19T10:49:43;32.67;;;5.72;;
73113;SDS011;61301;51.956;5.876;2023-11-19T10:52:09;31.25;;;6.25;;
73113;SDS011;61301;51.956;5.876;2023-11-19T10:54:35;27.63;;;5.60;;
73113;SDS011;61301;51.956;5.876;2023-11-19T10:57:02;29.42;;;6.28;;
73113;SDS011;61301;51.956;5.876;2023-11-19T10:59:30;33.05;;;6.60;;
73113;SDS011;61301;51.956;5.876;2023-11-19T11:01:57;28.67;;;6.22;;
73113;SDS011;61301;51.956;5.876;2023-11-19T11:04:29;25.67;;;6.25;;
73113;SDS011;61301;51.956;5.876;2023-11-19T11:06:59;34.17;;;7.10;;
73113;SDS011;61301;51.956;5.876;2023-11-19T11:09:27;23.67;;;6.28;;
73113;SDS011;61301;51.956;5.876;2023-11-19T11:11:53;28.98;;;5.07;;
73113;SDS011;61301;51.956;5.876;2023-11-19T11:14:20;38.13;;;7.10;;
73113;SDS011;61301;51.956;5.876;2023-11-19T11:16:48;24.25;;;5.32;;
73113;SDS011;61301;51.956;5.876;2023-11-19T11:19:15;28.23;;;5.22;;
73113;SDS011;61301;51.956;5.876;2023-11-19T11:21:43;23.42;;;4.88;;
73113;SDS011;61301;51.956;5.876;2023-11-19T11:24:25;26.05;;;5.07;;
73113;SDS011;61301;51.956;5.876;2023-11-19T11:27:39;24.02;;;6.15;;
73113;SDS011;61301;51.956;5.876;2023-11-19T11:33:15;26.30;;;5.60;;
73113;SDS011;61301;51.956;5.876;2023-11-19T11:36:04;32.70;;;6.68;;
73113;SDS011;61301;51.956;5.876;2023-11-19T11:38:40;22.70;;;4.53;;
73113;SDS011;61301;51.956;5.876;2023-11-19T11:41:20;29.65;;;5.32;;
73113;SDS011;61301;51.956;5.876;2023-11-19T11:43:50;25.67;;;5.47;;
73113;SDS011;61301;51.956;5.876;2023-11-19T11:49:04;34.65;;;5.82;;
73113;SDS011;61301;51.956;5.876;2023-11-19T11:54:31;36.40;;;5.88;;
73113;SDS011;61301;51.956;5.876;2023-11-19T11:57:03;31.90;;;6.15;;
73113;SDS011;61301;51.956;5.876;2023-11-19T11:59:42;25.48;;;5.45;;
73113;SDS011;61301;51.956;5.876;2023-11-19T12:02:11;26.98;;;6.28;;
73113;SDS011;61301;51.956;5.876;2023-11-19T12:04:40;30.80;;;5.55;;
73113;SDS011;61301;51.956;5.876;2023-11-19T12:07:07;24.58;;;4.40;;
73113;SDS011;61301;51.956;5.876;2023-11-19T12:09:36;25.75;;;5.72;;
73113;SDS011;61301;51.956;5.876;2023-11-19T12:20:00;14.23;;;3.90;;
73113;SDS011;61301;51.956;5.876;2023-11-19T12:22:31;21.48;;;3.83;;
73113;SDS011;61301;51.956;5.876;2023-11-19T12:24:57;23.38;;;4.18;;
73113;SDS011;61301;51.956;5.876;2023-11-19T12:27:24;17.35;;;4.80;;
73113;SDS011;61301;51.956;5.876;2023-11-19T12:29:51;21.98;;;4.63;;
73113;SDS011;61301;51.956;5.876;2023-11-19T12:32:18;17.20;;;3.80;;
73113;SDS011;61301;51.956;5.876;2023-11-19T12:34:45;27.40;;;5.28;;
73113;SDS011;61301;51.956;5.876;2023-11-19T12:37:11;17.23;;;4.40;;
73113;SDS011;61301;51.956;5.876;2023-11-19T12:39:37;15.55;;;4.32;;
73113;SDS011;61301;51.956;5.876;2023-11-19T12:42:03;16.38;;;3.75;;
73113;SDS011;61301;51.956;5.876;2023-11-19T12:44:29;21.58;;;5.25;;
73113;SDS011;61301;51.956;5.876;2023-11-19T12:47:05;19.77;;;3.63;;
73113;SDS011;61301;51.956;5.876;2023-11-19T12:49:35;20.77;;;3.95;;
73113;SDS011;61301;51.956;5.876;2023-11-19T12:52:01;23.02;;;3.63;;
73113;SDS011;61301;51.956;5.876;2023-11-19T12:54:36;23.48;;;5.28;;
73113;SDS011;61301;51.956;5.876;2023-11-19T12:57:02;17.20;;;3.40;;
73113;SDS011;61301;51.956;5.876;2023-11-19T12:59:33;19.27;;;4.22;;
73113;SDS011;61301;51.956;5.876;2023-11-19T13:02:00;16.55;;;4.32;;
73113;SDS011;61301;51.956;5.876;2023-11-19T13:04:28;16.30;;;4.03;;
73113;SDS011;61301;51.956;5.876;2023-11-19T13:07:01;17.88;;;4.53;;
73113;SDS011;61301;51.956;5.876;2023-11-19T13:09:29;19.33;;;4.57;;
73113;SDS011;61301;51.956;5.876;2023-11-19T13:11:56;17.77;;;4.07;;
73113;SDS011;61301;51.956;5.876;2023-11-19T13:14:22;19.95;;;4.50;;
73113;SDS011;61301;51.956;5.876;2023-11-19T13:16:49;24.67;;;5.75;;
73113;SDS011;61301;51.956;5.876;2023-11-19T13:19:15;21.05;;;4.18;;
73113;SDS011;61301;51.956;5.876;2023-11-19T13:21:45;18.40;;;4.72;;
73113;SDS011;61301;51.956;5.876;2023-11-19T13:24:13;23.73;;;5.55;;
73113;SDS011;61301;51.956;5.876;2023-11-19T13:26:39;24.33;;;5.05;;
73113;SDS011;61301;51.956;5.876;2023-11-19T13:29:05;24.95;;;4.88;;
73113;SDS011;61301;51.956;5.876;2023-11-19T13:31:31;22.58;;;5.53;;
73113;SDS011;61301;51.956;5.876;2023-11-19T13:33:57;23.17;;;3.80;;
73113;SDS011;61301;51.956;5.876;2023-11-19T13:36:24;25.63;;;5.75;;
73113;SDS011;61301;51.956;5.876;2023-11-19T13:38:51;26.00;;;5.50;;
73113;SDS011;61301;51.956;5.876;2023-11-19T13:41:27;25.48;;;4.70;;
73113;SDS011;61301;51.956;5.876;2023-11-19T13:43:53;25.40;;;5.30;;
73113;SDS011;61301;51.956;5.876;2023-11-19T13:46:20;26.23;;;5.43;;
73113;SDS011;61301;51.956;5.876;2023-11-19T13:48:46;19.05;;;4.07;;
73113;SDS011;61301;51.956;5.876;2023-11-19T13:51:15;18.17;;;4.05;;
73113;SDS011;61301;51.956;5.876;2023-11-19T13:53:41;24.42;;;5.90;;
73113;SDS011;61301;51.956;5.876;2023-11-19T13:56:08;26.27;;;5.47;;
73113;SDS011;61301;51.956;5.876;2023-11-19T13:58:34;20.48;;;5.18;;
73113;SDS011;61301;51.956;5.876;2023-11-19T14:01:00;26.92;;;6.43;;
73113;SDS011;61301;51.956;5.876;2023-11-19T14:03:27;20.65;;;4.88;;
73113;SDS011;61301;51.956;5.876;2023-11-19T14:05:53;26.25;;;5.32;;
73113;SDS011;61301;51.956;5.876;2023-11-19T14:08:20;23.02;;;5.45;;
73113;SDS011;61301;51.956;5.876;2023-11-19T14:10:46;21.88;;;5.35;;
73113;SDS011;61301;51.956;5.876;2023-11-19T14:13:12;24.23;;;5.10;;
73113;SDS011;61301;51.956;5.876;2023-11-19T14:15:41;21.83;;;4.78;;
73113;SDS011;61301;51.956;5.876;2023-11-19T14:18:08;19.25;;;4.45;;
73113;SDS011;61301;51.956;5.876;2023-11-19T14:20:34;20.80;;;4.97;;
73113;SDS011;61301;51.956;5.876;2023-11-19T14:23:01;22.40;;;5.32;;
73113;SDS011;61301;51.956;5.876;2023-11-19T14:25:28;20.08;;;4.55;;
73113;SDS011;61301;51.956;5.876;2023-11-19T14:27:54;20.60;;;4.35;;
73113;SDS011;61301;51.956;5.876;2023-11-19T14:30:20;25.77;;;4.03;;
73113;SDS011;61301;51.956;5.876;2023-11-19T14:32:46;17.30;;;3.72;;
73113;SDS011;61301;51.956;5.876;2023-11-19T14:35:14;21.08;;;4.65;;
73113;SDS011;61301;51.956;5.876;2023-11-19T14:37:40;19.35;;;5.22;;
73113;SDS011;61301;51.956;5.876;2023-11-19T14:40:06;26.40;;;5.57;;
73113;SDS011;61301;51.956;5.876;2023-11-19T14:42:35;20.02;;;4.70;;
73113;SDS011;61301;51.956;5.876;2023-11-19T14:45:02;20.98;;;3.88;;
73113;SDS011;61301;51.956;5.876;2023-11-19T14:47:28;24.50;;;5.60;;
73113;SDS011;61301;51.956;5.876;2023-11-19T14:49:55;21.35;;;4.93;;
73113;SDS011;61301;51.956;5.876;2023-11-19T14:52:21;25.02;;;4.75;;
73113;SDS011;61301;51.956;5.876;2023-11-19T14:54:47;16.88;;;3.67;;